Time;durP1;ratioP1;P1;durP2;ratioP2;P2;SDS_P1;SDS_P2;PMS_P1;PMS_P2;Temp;Humidity;BMP_temperature;BMP_pressure;BME280_temperature;BME280_humidity;BME280_pressure;Samples;Min_cycle;Max_cycle;Signal;HPM_P1;HPM_P2
2023/05/04 00:00:37;;;;;;;;;;;;;;;11.02;52.24;102180.97;4114193;28;20377;-66
2023/05/04 00:02:39;;;;;;;;;;;;;;;11.01;52.57;102179.25;4114916;28;20033;-66
2023/05/04 00:04:42;;;;;;;;;;;;;;;10.94;52.67;102178.13;4114913;28;20527;-66
2023/05/04 00:06:46;;;;;;;;;;;;;;;10.93;52.89;102173.72;4114636;28;20029;-66
2023/05/04 00:08:48;;;;;;;;;;;;;;;10.95;52.80;102179.84;4113862;28;20026;-66
2023/05/04 00:10:51;;;;;;;;;;;;;;;10.95;52.64;102175.28;4114603;28;20049;-66
2023/05/04 00:12:53;;;;;;;;;;;;;;;10.96;53.00;102173.44;4113072;28;20017;-66
2023/05/04 00:14:55;;;;;;;;;;;;;;;10.94;52.98;102172.72;4114475;28;20029;-66
2023/05/04 00:16:57;;;;;;;;;;;;;;;10.90;53.39;102176.72;4114481;28;20040;-66
2023/05/04 00:18:59;;;;;;;;;;;;;;;10.87;53.39;102172.44;4112981;28;20037;-66
2023/05/04 00:21:01;;;;;;;;;;;;;;;10.86;53.36;102172.59;4114918;28;20024;-66
2023/05/04 00:23:04;;;;;;;;;;;;;;;10.86;53.23;102170.75;4114234;28;20370;-66
2023/05/04 00:25:07;;;;;;;;;;;;;;;10.82;53.15;102166.63;4113969;28;20025;-66
2023/05/04 00:27:09;;;;;;;;;;;;;;;10.77;53.42;102163.50;4114090;28;20018;-66
2023/05/04 00:29:11;;;;;;;;;;;;;;;10.78;53.54;102170.59;4112789;28;20029;-66
2023/05/04 00:31:13;;;;;;;;;;;;;;;10.74;53.85;102169.22;4112589;28;20278;-66
2023/05/04 00:33:15;;;;;;;;;;;;;;;10.71;53.62;102161.38;4114051;28;20025;-66
2023/05/04 00:35:18;;;;;;;;;;;;;;;10.64;54.00;102167.34;4114628;28;20017;-66
2023/05/04 00:37:20;;;;;;;;;;;;;;;10.64;54.09;102167.34;4114918;28;20009;-66
2023/05/04 00:39:23;;;;;;;;;;;;;;;10.62;54.27;102163.91;4113991;28;20508;-66
2023/05/04 00:41:25;;;;;;;;;;;;;;;10.59;54.40;102161.50;4114555;28;20032;-66
2023/05/04 00:43:27;;;;;;;;;;;;;;;10.58;54.39;102165.22;4121051;28;19932;-66
2023/05/04 00:45:29;;;;;;;;;;;;;;;10.58;54.63;102164.34;4121149;28;20040;-66
2023/05/04 00:47:31;;;;;;;;;;;;;;;10.57;54.43;102166.22;4113261;28;20017;-66
2023/05/04 00:49:33;;;;;;;;;;;;;;;10.53;54.42;102161.22;4121076;28;20393;-66
2023/05/04 00:51:35;;;;;;;;;;;;;;;10.51;54.54;102165.94;4120638;28;20033;-66
2023/05/04 00:53:37;;;;;;;;;;;;;;;10.47;54.90;102159.97;4113116;28;20033;-66
2023/05/04 00:55:40;;;;;;;;;;;;;;;10.43;55.19;102158.53;4112418;28;20402;-66
2023/05/04 00:57:42;;;;;;;;;;;;;;;10.40;55.08;102156.13;4119213;28;20017;-66
2023/05/04 00:59:44;;;;;;;;;;;;;;;10.39;55.17;102159.78;4103470;28;20025;-66
2023/05/04 01:01:46;;;;;;;;;;;;;;;10.35;55.30;102163.78;4103094;28;20499;-66
2023/05/04 01:03:48;;;;;;;;;;;;;;;10.33;55.49;102160.34;4112997;28;19928;-66
2023/05/04 01:05:53;;;;;;;;;;;;;;;10.35;55.58;102161.94;4111444;28;20429;-66
2023/05/04 01:07:56;;;;;;;;;;;;;;;10.34;55.69;102159.38;4113948;28;20016;-66
2023/05/04 01:09:59;;;;;;;;;;;;;;;10.31;55.57;102159.63;4114202;28;20033;-66
2023/05/04 01:12:04;;;;;;;;;;;;;;;10.28;55.57;102158.91;4113946;28;20028;-66
2023/05/04 01:14:05;;;;;;;;;;;;;;;10.25;55.94;102152.91;4111212;28;20029;-66
2023/05/04 01:16:07;;;;;;;;;;;;;;;10.26;56.17;102154.63;4114073;28;20037;-66
2023/05/04 01:18:10;;;;;;;;;;;;;;;10.26;56.17;102160.03;4120723;28;20049;-66
2023/05/04 01:20:12;;;;;;;;;;;;;;;10.26;55.91;102157.34;4113508;28;20034;-66
2023/05/04 01:22:16;;;;;;;;;;;;;;;10.24;56.22;102149.38;4118531;28;20012;-66
2023/05/04 01:24:18;;;;;;;;;;;;;;;10.23;56.07;102155.75;4120132;28;19929;-65
2023/05/04 01:26:22;;;;;;;;;;;;;;;10.22;56.35;102156.78;4112199;28;20064;-65
2023/05/04 01:28:25;;;;;;;;;;;;;;;10.21;56.37;102155.06;4114216;28;20025;-66
2023/05/04 01:30:29;;;;;;;;;;;;;;;10.22;56.55;102158.59;4112846;28;20020;-66
2023/05/04 01:32:32;;;;;;;;;;;;;;;10.20;56.53;102147.09;4113835;28;20030;-66
2023/05/04 01:34:35;;;;;;;;;;;;;;;10.19;56.38;102153.50;4113539;28;20028;-65
2023/05/04 01:36:37;;;;;;;;;;;;;;;10.14;56.62;102159.31;4112498;28;20077;-66
2023/05/04 01:38:40;;;;;;;;;;;;;;;10.13;56.46;102162.16;4113370;28;20012;-66
2023/05/04 01:40:42;;;;;;;;;;;;;;;10.12;56.89;102160.44;4111773;28;20108;-66
2023/05/04 01:42:44;;;;;;;;;;;;;;;10.10;56.75;102153.34;4112158;28;20012;-66
2023/05/04 01:44:47;;;;;;;;;;;;;;;10.12;56.92;102158.59;4113810;28;19941;-65
2023/05/04 01:46:49;;;;;;;;;;;;;;;10.10;56.91;102160.59;4120294;28;20025;-66
2023/05/04 01:48:51;;;;;;;;;;;;;;;10.08;56.80;102158.03;4113205;28;20016;-65
2023/05/04 01:50:53;;;;;;;;;;;;;;;10.06;57.15;102154.63;4112993;28;20125;-65
2023/05/04 01:52:55;;;;;;;;;;;;;;;10.08;57.02;102157.19;4112990;28;20036;-67
2023/05/04 01:54:58;;;;;;;;;;;;;;;10.12;56.63;102155.91;4112988;28;20013;-65
2023/05/04 01:57:01;;;;;;;;;;;;;;;10.17;56.76;102155.47;4087557;29;19972;-66
2023/05/04 01:59:04;;;;;;;;;;;;;;;10.16;56.72;102151.09;4126549;28;20219;-66
2023/05/04 02:01:06;;;;;;;;;;;;;;;10.09;56.85;102148.06;4119586;28;20017;-66
2023/05/04 02:03:09;;;;;;;;;;;;;;;10.02;56.95;102145.09;4110289;28;20406;-65
2023/05/04 02:05:11;;;;;;;;;;;;;;;9.98;57.33;102146.34;4112559;28;19930;-66
2023/05/04 02:07:13;;;;;;;;;;;;;;;9.95;57.38;102154.72;4112790;28;20049;-66
2023/05/04 02:09:17;;;;;;;;;;;;;;;9.94;57.48;102150.34;4112358;28;20021;-65
2023/05/04 02:11:21;;;;;;;;;;;;;;;9.91;57.25;102151.44;4119901;28;20021;-65
2023/05/04 02:13:23;;;;;;;;;;;;;;;9.89;57.40;102145.34;4104484;28;19972;-64
2023/05/04 02:15:25;;;;;;;;;;;;;;;9.85;57.71;102143.06;4118935;28;20020;-65
2023/05/04 02:17:26;;;;;;;;;;;;;;;9.81;57.77;102142.50;4121064;28;20017;-65
2023/05/04 02:19:28;;;;;;;;;;;;;;;9.79;57.67;102139.06;4112549;28;20057;-65
2023/05/04 02:21:30;;;;;;;;;;;;;;;9.77;58.17;102148.31;4112338;28;20025;-65
2023/05/04 02:23:32;;;;;;;;;;;;;;;9.72;58.17;102141.47;4112571;28;20024;-65
2023/05/04 02:25:34;;;;;;;;;;;;;;;9.72;58.31;102133.38;4112772;28;19930;-65
2023/05/04 02:27:38;;;;;;;;;;;;;;;9.70;58.11;102140.75;4120023;28;20009;-65
2023/05/04 02:29:40;;;;;;;;;;;;;;;9.67;58.09;102137.44;4119592;28;20029;-65
2023/05/04 02:31:43;;;;;;;;;;;;;;;9.60;58.48;102137.16;4112725;28;20026;-65
2023/05/04 02:33:45;;;;;;;;;;;;;;;9.57;58.84;102137.41;4113786;28;20029;-65
2023/05/04 02:35:47;;;;;;;;;;;;;;;9.52;58.89;102137.81;4112615;28;20017;-65
2023/05/04 02:37:49;;;;;;;;;;;;;;;9.49;59.08;102138.09;4111096;28;20020;-66
2023/05/04 02:39:51;;;;;;;;;;;;;;;9.47;59.23;102139.25;4112954;28;20025;-66
2023/05/04 02:41:53;;;;;;;;;;;;;;;9.44;59.17;102137.66;4112187;28;20017;-66
2023/05/04 02:43:57;;;;;;;;;;;;;;;9.42;59.39;102133.38;4105982;28;20091;-65
2023/05/04 02:46:00;;;;;;;;;;;;;;;9.40;59.43;102140.75;4115628;28;19937;-65
2023/05/04 02:48:02;;;;;;;;;;;;;;;9.38;59.49;102138.19;4114962;28;19936;-66
2023/05/04 02:50:04;;;;;;;;;;;;;;;9.36;59.43;102137.50;4122360;28;20512;-65
2023/05/04 02:52:07;;;;;;;;;;;;;;;9.32;59.59;102139.59;4114680;28;20012;-65
2023/05/04 02:54:09;;;;;;;;;;;;;;;9.30;59.82;102143.41;4114961;28;20029;-66
2023/05/04 02:56:11;;;;;;;;;;;;;;;9.22;59.94;102141.41;4116181;28;20016;-65
2023/05/04 02:58:13;;;;;;;;;;;;;;;9.18;59.83;102138.13;4122027;28;20429;-66
2023/05/04 03:00:17;;;;;;;;;;;;;;;9.16;60.20;102136.53;4115350;28;20025;-66
2023/05/04 03:02:19;;;;;;;;;;;;;;;9.15;60.08;102140.19;4114953;28;20038;-66
2023/05/04 03:04:21;;;;;;;;;;;;;;;9.14;60.24;102138.53;4114945;28;19996;-66
2023/05/04 03:06:23;;;;;;;;;;;;;;;9.08;60.06;102139.03;4115783;28;20056;-65
2023/05/04 03:08:25;;;;;;;;;;;;;;;9.02;60.62;102141.25;4115126;28;20028;-66
2023/05/04 03:10:27;;;;;;;;;;;;;;;9.00;60.78;102137.84;4113945;28;20008;-66
2023/05/04 03:12:29;;;;;;;;;;;;;;;9.00;60.41;102134.31;4121732;28;20014;-66
2023/05/04 03:14:31;;;;;;;;;;;;;;;9.01;60.67;102141.41;4114665;28;20017;-66
2023/05/04 03:16:34;;;;;;;;;;;;;;;9.00;60.74;102137.84;4114159;28;20398;-66
2023/05/04 03:18:37;;;;;;;;;;;;;;;8.96;60.97;102135.56;4122433;28;20033;-66
2023/05/04 03:20:40;;;;;;;;;;;;;;;8.95;60.66;102129.31;4121968;28;20021;-65
2023/05/04 03:22:45;;;;;;;;;;;;;;;8.93;61.20;102138.50;4090914;29;20726;-66
2023/05/04 03:24:47;;;;;;;;;;;;;;;8.86;61.20;102130.13;4121841;28;20483;-66
2023/05/04 03:26:51;;;;;;;;;;;;;;;8.85;61.57;102131.09;4121816;28;20345;-66
2023/05/04 03:28:53;;;;;;;;;;;;;;;8.88;61.48;102135.38;4122249;28;20044;-65
2023/05/04 03:30:56;;;;;;;;;;;;;;;8.88;61.30;102129.97;4113644;28;21400;-65
2023/05/04 03:33:00;;;;;;;;;;;;;;;8.89;61.16;102127.16;4114223;28;20041;-65
2023/05/04 03:35:03;;;;;;;;;;;;;;;8.89;61.06;102131.69;4114056;28;20048;-66
2023/05/04 03:37:05;;;;;;;;;;;;;;;8.88;61.14;102133.53;4113066;28;20029;-66
2023/05/04 03:39:08;;;;;;;;;;;;;;;8.82;61.11;102132.22;4115585;28;20057;-66
2023/05/04 03:41:12;;;;;;;;;;;;;;;8.79;61.33;102134.31;4113537;28;20045;-65
2023/05/04 03:43:14;;;;;;;;;;;;;;;8.78;61.36;102133.47;4114065;28;20016;-65
2023/05/04 03:45:16;;;;;;;;;;;;;;;8.78;61.76;102138.00;4122022;28;20385;-66
2023/05/04 03:47:18;;;;;;;;;;;;;;;8.79;61.56;102135.19;4122139;28;19930;-66
2023/05/04 03:49:23;;;;;;;;;;;;;;;8.77;62.03;102136.28;4121774;28;20028;-66
2023/05/04 03:51:25;;;;;;;;;;;;;;;8.72;62.06;102136.69;4130095;28;20020;-66
2023/05/04 03:53:27;;;;;;;;;;;;;;;8.72;62.38;102135.84;4114797;28;20048;-64
2023/05/04 03:55:28;;;;;;;;;;;;;;;8.69;62.39;102128.00;4114280;28;20021;-65
2023/05/04 03:57:31;;;;;;;;;;;;;;;8.65;62.46;102125.59;4115091;28;20045;-67
2023/05/04 03:59:33;;;;;;;;;;;;;;;8.66;62.26;102129.13;4121417;28;20061;-66
2023/05/04 04:01:38;;;;;;;;;;;;;;;8.66;62.40;102135.34;4121193;28;20024;-66
2023/05/04 04:03:40;;;;;;;;;;;;;;;8.65;62.77;102127.41;4111596;28;20578;-64
2023/05/04 04:05:44;;;;;;;;;;;;;;;8.64;62.67;102123.03;4112726;28;20381;-66
2023/05/04 04:07:46;;;;;;;;;;;;;;;8.62;62.83;102136.63;4121402;28;20507;-65
2023/05/04 04:09:48;;;;;;;;;;;;;;;8.65;62.60;102138.16;4105657;28;20013;-66
2023/05/04 04:11:50;;;;;;;;;;;;;;;8.66;62.67;102137.19;4127763;28;20016;-66
2023/05/04 04:13:52;;;;;;;;;;;;;;;8.73;62.66;102132.13;4114566;28;20001;-66
2023/05/04 04:15:54;;;;;;;;;;;;;;;8.80;61.96;102131.47;4113290;28;19957;-66
2023/05/04 04:17:56;;;;;;;;;;;;;;;8.93;62.00;102142.06;4111781;28;20029;-66
2023/05/04 04:19:58;;;;;;;;;;;;;;;8.94;62.28;102130.31;4113635;28;19972;-64
2023/05/04 04:22:01;;;;;;;;;;;;;;;8.98;62.15;102129.06;4114719;28;20021;-65
2023/05/04 04:24:04;;;;;;;;;;;;;;;9.08;62.04;102130.97;4115016;28;20440;-65
2023/05/04 04:26:06;;;;;;;;;;;;;;;9.16;61.75;102129.28;4114608;28;20024;-65
2023/05/04 04:28:08;;;;;;;;;;;;;;;9.19;61.49;102122.78;4113244;28;19933;-65
2023/05/04 04:30:11;;;;;;;;;;;;;;;9.20;61.62;102130.75;4113776;28;20075;-65
2023/05/04 04:32:16;;;;;;;;;;;;;;;9.10;61.59;102127.13;4114472;28;20032;-65
2023/05/04 04:34:21;;;;;;;;;;;;;;;9.12;61.46;102127.00;4113963;28;20021;-65
2023/05/04 04:36:23;;;;;;;;;;;;;;;9.15;61.37;102129.41;4114132;28;20009;-65
2023/05/04 04:38:26;;;;;;;;;;;;;;;9.15;61.23;102121.34;4114079;28;20025;-66
2023/05/04 04:40:28;;;;;;;;;;;;;;;9.13;61.01;102126.84;4113428;28;20013;-65
2023/05/04 04:42:31;;;;;;;;;;;;;;;9.18;60.78;102131.84;4114446;28;20049;-65
2023/05/04 04:44:33;;;;;;;;;;;;;;;9.20;60.70;102122.66;4111694;28;20112;-66
2023/05/04 04:46:39;;;;;;;;;;;;;;;9.21;60.48;102126.19;4113695;28;20020;-66
2023/05/04 04:48:41;;;;;;;;;;;;;;;9.27;60.31;102120.28;4112859;28;20392;-65
2023/05/04 04:50:43;;;;;;;;;;;;;;;9.33;60.26;102119.72;4114504;28;20013;-66
2023/05/04 04:52:45;;;;;;;;;;;;;;;9.31;60.44;102118.16;4113483;28;20013;-66
2023/05/04 04:54:48;;;;;;;;;;;;;;;9.31;60.46;102116.31;4113527;28;20366;-66
2023/05/04 04:56:50;;;;;;;;;;;;;;;9.34;60.28;102129.53;4112386;28;20064;-65
2023/05/04 04:58:52;;;;;;;;;;;;;;;9.37;60.36;102121.19;4110684;28;20044;-65
2023/05/04 05:00:54;;;;;;;;;;;;;;;9.39;60.39;102123.75;4102141;28;20792;-65
2023/05/04 05:02:56;;;;;;;;;;;;;;;9.47;60.30;102128.47;4107961;28;20124;-66
2023/05/04 05:04:58;;;;;;;;;;;;;;;9.54;60.01;102132.31;4109971;28;20025;-65
2023/05/04 05:07:00;;;;;;;;;;;;;;;9.59;60.00;102130.03;4106039;28;20026;-66
2023/05/04 05:09:03;;;;;;;;;;;;;;;9.63;59.60;102130.63;4109257;28;19930;-68
2023/05/04 05:11:07;;;;;;;;;;;;;;;9.67;59.58;102127.53;4109453;28;20452;-64
2023/05/04 05:13:09;;;;;;;;;;;;;;;9.71;59.02;102123.56;4111290;28;20098;-65
2023/05/04 05:15:11;;;;;;;;;;;;;;;9.76;59.08;102125.00;4112554;28;20013;-65
2023/05/04 05:17:13;;;;;;;;;;;;;;;9.78;59.39;102120.31;4113216;28;20367;-66
2023/05/04 05:19:16;;;;;;;;;;;;;;;9.74;58.87;102125.97;4112227;28;20021;-66
2023/05/04 05:21:18;;;;;;;;;;;;;;;9.74;58.92;102122.44;4112548;28;20045;-66
2023/05/04 05:23:20;;;;;;;;;;;;;;;9.74;58.89;102117.88;4113117;28;20033;-66
2023/05/04 05:25:22;;;;;;;;;;;;;;;9.73;59.25;102115.31;4111942;28;19930;-66
2023/05/04 05:27:25;;;;;;;;;;;;;;;9.72;59.25;102119.03;4112499;28;20013;-66
2023/05/04 05:29:27;;;;;;;;;;;;;;;9.68;58.99;102121.13;4108771;28;19927;-66
2023/05/04 05:31:32;;;;;;;;;;;;;;;9.69;58.99;102124.69;4110313;28;20022;-66
2023/05/04 05:33:34;;;;;;;;;;;;;;;9.70;59.83;102124.56;4112113;28;20033;-66
2023/05/04 05:35:39;;;;;;;;;;;;;;;9.78;59.83;102123.00;4110898;28;20033;-66
2023/05/04 05:37:41;;;;;;;;;;;;;;;9.83;59.61;102116.22;4119119;28;19992;-65
2023/05/04 05:39:43;;;;;;;;;;;;;;;9.90;59.46;102122.75;4114126;28;19930;-66
2023/05/04 05:41:45;;;;;;;;;;;;;;;9.97;59.25;102119.50;4113091;28;20009;-65
2023/05/04 05:43:49;;;;;;;;;;;;;;;9.96;58.76;102121.34;4111872;28;19997;-65
2023/05/04 05:45:51;;;;;;;;;;;;;;;10.01;58.83;102120.94;4113289;28;20392;-65
2023/05/04 05:47:53;;;;;;;;;;;;;;;10.05;58.91;102125.91;4112191;28;20073;-64
2023/05/04 05:49:55;;;;;;;;;;;;;;;10.13;58.73;102127.06;4113634;28;20417;-65
2023/05/04 05:51:57;;;;;;;;;;;;;;;10.18;59.04;102111.28;4110536;28;20020;-66
2023/05/04 05:53:59;;;;;;;;;;;;;;;10.21;58.34;102128.06;4112115;28;20025;-66
2023/05/04 05:56:02;;;;;;;;;;;;;;;10.22;58.17;102118.09;4112248;28;20480;-65
2023/05/04 05:58:05;;;;;;;;;;;;;;;10.25;57.91;102118.69;4110945;28;20014;-65
2023/05/04 06:00:09;;;;;;;;;;;;;;;10.28;58.08;102118.41;4120200;28;20020;-66
2023/05/04 06:02:17;;;;;;;;;;;;;;;10.33;58.12;102120.72;4112931;28;20029;-65
2023/05/04 06:04:20;;;;;;;;;;;;;;;10.34;57.34;102111.59;4111874;28;20024;-66
2023/05/04 06:06:22;;;;;;;;;;;;;;;10.37;57.05;102107.78;4112171;28;20345;-66
2023/05/04 06:08:24;;;;;;;;;;;;;;;10.39;57.07;102114.75;4110792;28;20033;-66
2023/05/04 06:10:26;;;;;;;;;;;;;;;10.43;57.18;102112.63;4110525;28;19930;-66
2023/05/04 06:12:28;;;;;;;;;;;;;;;10.48;56.92;102112.19;4110979;28;20436;-66
2023/05/04 06:14:30;;;;;;;;;;;;;;;10.46;56.50;102110.47;4113326;28;20048;-66
2023/05/04 06:16:34;;;;;;;;;;;;;;;10.47;56.85;102111.34;4114714;28;20020;-65
2023/05/04 06:18:36;;;;;;;;;;;;;;;10.48;56.60;102113.03;4115665;28;20017;-65
2023/05/04 06:20:39;;;;;;;;;;;;;;;10.48;56.63;102113.03;4114856;28;20020;-66
2023/05/04 06:22:41;;;;;;;;;;;;;;;10.49;56.30;102112.03;4116469;28;20028;-66
2023/05/04 06:24:43;;;;;;;;;;;;;;;10.52;56.59;102113.63;4116384;28;20026;-66
2023/05/04 06:26:45;;;;;;;;;;;;;;;10.56;56.80;102113.16;4122547;28;20380;-65
2023/05/04 06:28:47;;;;;;;;;;;;;;;10.58;56.45;102107.63;4116332;28;20480;-65
2023/05/04 06:30:49;;;;;;;;;;;;;;;10.62;56.88;102115.28;4115027;28;19957;-66
2023/05/04 06:32:52;;;;;;;;;;;;;;;10.66;56.58;102110.47;4115333;28;20020;-66
2023/05/04 06:34:55;;;;;;;;;;;;;;;10.70;56.12;102106.47;4114208;28;20020;-65
2023/05/04 06:36:57;;;;;;;;;;;;;;;10.75;56.06;102111.44;4115737;28;20440;-66
2023/05/04 06:38:58;;;;;;;;;;;;;;;10.77;56.01;102115.72;4116383;28;20021;-66
2023/05/04 06:41:00;;;;;;;;;;;;;;;10.81;56.19;102111.72;4114745;28;20021;-66
2023/05/04 06:43:02;;;;;;;;;;;;;;;10.87;55.83;102123.78;4114139;28;20029;-66
2023/05/04 06:45:05;;;;;;;;;;;;;;;10.91;55.85;102118.94;4115755;28;20022;-66
2023/05/04 06:47:07;;;;;;;;;;;;;;;10.96;55.77;102122.09;4115090;28;20397;-66
2023/05/04 06:49:12;;;;;;;;;;;;;;;10.98;55.83;102120.06;4114297;28;20472;-66
2023/05/04 06:51:14;;;;;;;;;;;;;;;10.99;55.56;102122.63;4115688;28;20014;-65
2023/05/04 06:53:16;;;;;;;;;;;;;;;10.99;55.01;102125.34;4115039;28;20017;-65
2023/05/04 06:55:18;;;;;;;;;;;;;;;11.01;55.61;102125.19;4114895;28;20016;-65
2023/05/04 06:57:20;;;;;;;;;;;;;;;11.06;55.86;102122.06;4116137;28;20021;-65
2023/05/04 06:59:22;;;;;;;;;;;;;;;11.10;55.80;102121.63;4116256;28;20020;-65
2023/05/04 07:01:24;;;;;;;;;;;;;;;11.16;55.72;102118.31;4115530;28;20029;-65
2023/05/04 07:03:26;;;;;;;;;;;;;;;11.21;55.93;102114.31;4115811;28;20013;-65
2023/05/04 07:05:30;;;;;;;;;;;;;;;11.23;55.64;102101.50;4114402;28;19950;-65
2023/05/04 07:07:32;;;;;;;;;;;;;;;11.27;55.71;102111.00;4115986;28;20025;-65
2023/05/04 07:09:34;;;;;;;;;;;;;;;11.31;55.71;102112.44;4116319;28;20013;-65
2023/05/04 07:11:36;;;;;;;;;;;;;;;11.35;55.75;102109.28;4115385;28;19966;-65
2023/05/04 07:13:41;;;;;;;;;;;;;;;11.39;55.15;102109.84;4114655;28;20568;-65
2023/05/04 07:15:43;;;;;;;;;;;;;;;11.44;55.23;102114.78;4116384;28;20017;-65
2023/05/04 07:17:46;;;;;;;;;;;;;;;11.49;54.53;102112.50;4115395;28;20476;-65
2023/05/04 07:19:51;;;;;;;;;;;;;;;11.51;54.61;102116.75;4116123;28;20009;-65
2023/05/04 07:21:54;;;;;;;;;;;;;;;11.53;54.22;102112.03;4115475;28;20024;-64
2023/05/04 07:23:56;;;;;;;;;;;;;;;11.57;54.19;102109.91;4115520;28;20017;-64
2023/05/04 07:25:58;;;;;;;;;;;;;;;11.59;53.85;102113.31;4113655;28;20029;-65
2023/05/04 07:28:01;;;;;;;;;;;;;;;11.63;53.69;102114.72;4114927;28;20024;-65
2023/05/04 07:30:05;;;;;;;;;;;;;;;11.67;53.69;102104.44;4116029;28;20024;-65
2023/05/04 07:32:07;;;;;;;;;;;;;;;11.69;53.87;102103.28;4114484;28;19953;-65
2023/05/04 07:34:09;;;;;;;;;;;;;;;11.70;53.45;102096.84;4114877;28;20018;-65
2023/05/04 07:36:11;;;;;;;;;;;;;;;11.74;53.33;102092.00;4112271;28;20391;-65
2023/05/04 07:38:14;;;;;;;;;;;;;;;11.76;53.45;102097.28;4113594;28;20021;-65
2023/05/04 07:40:16;;;;;;;;;;;;;;;11.80;53.12;102095.94;4113579;28;20020;-65
2023/05/04 07:42:18;;;;;;;;;;;;;;;11.82;52.46;102089.41;4113386;28;20041;-65
2023/05/04 07:44:20;;;;;;;;;;;;;;;11.84;52.73;102089.25;4115393;28;20010;-66
2023/05/04 07:46:22;;;;;;;;;;;;;;;11.85;52.94;102086.38;4115143;28;20366;-66
2023/05/04 07:48:24;;;;;;;;;;;;;;;11.88;52.72;102088.78;4115237;28;20024;-65
2023/05/04 07:50:27;;;;;;;;;;;;;;;11.92;52.91;102089.34;4114330;28;20038;-65
2023/05/04 07:52:29;;;;;;;;;;;;;;;11.97;52.59;102083.47;4113050;28;19930;-66
2023/05/04 07:54:33;;;;;;;;;;;;;;;11.99;52.38;102090.47;4114668;28;20041;-65
2023/05/04 07:56:35;;;;;;;;;;;;;;;12.03;52.56;102088.28;4113809;28;20038;-65
2023/05/04 07:58:37;;;;;;;;;;;;;;;12.08;52.30;102083.25;4114830;28;20017;-65
2023/05/04 08:00:39;;;;;;;;;;;;;;;12.12;51.54;102073.81;4115058;28;20025;-65
2023/05/04 08:02:40;;;;;;;;;;;;;;;12.13;52.13;102075.53;4113991;28;20021;-65
2023/05/04 08:04:42;;;;;;;;;;;;;;;12.15;52.02;102069.97;4112076;28;20048;-65
2023/05/04 08:06:45;;;;;;;;;;;;;;;12.16;51.72;102072.53;4113083;28;20578;-67
2023/05/04 08:08:48;;;;;;;;;;;;;;;12.18;51.76;102072.38;4113738;28;20020;-67
2023/05/04 08:10:51;;;;;;;;;;;;;;;12.21;51.59;102072.91;4114415;28;20029;-67
2023/05/04 08:12:54;;;;;;;;;;;;;;;12.22;51.85;102077.28;4113893;28;20459;-66
2023/05/04 08:14:56;;;;;;;;;;;;;;;12.24;51.77;102071.72;4111792;28;19926;-66
2023/05/04 08:16:58;;;;;;;;;;;;;;;12.25;51.56;102062.59;4113385;28;20029;-66
2023/05/04 08:19:00;;;;;;;;;;;;;;;12.30;51.05;102072.97;4113952;28;20026;-66
2023/05/04 08:21:02;;;;;;;;;;;;;;;12.37;50.60;102074.91;4111308;28;20025;-66
2023/05/04 08:23:04;;;;;;;;;;;;;;;12.43;50.76;102073.44;4112883;28;20464;-66
2023/05/04 08:25:06;;;;;;;;;;;;;;;12.45;50.92;102074.13;4114246;28;20029;-66
2023/05/04 08:27:10;;;;;;;;;;;;;;;12.46;51.05;102067.69;4113768;28;20357;-65
2023/05/04 08:29:12;;;;;;;;;;;;;;;12.50;51.12;102068.22;4112706;28;20021;-66
2023/05/04 08:31:14;;;;;;;;;;;;;;;12.53;49.63;102063.34;4114013;28;20437;-65
2023/05/04 08:33:16;;;;;;;;;;;;;;;12.59;49.51;102057.28;4112978;28;19930;-67
2023/05/04 08:35:18;;;;;;;;;;;;;;;12.65;49.58;102060.34;4115344;28;19976;-66
2023/05/04 08:37:20;;;;;;;;;;;;;;;12.69;49.38;102056.34;4115490;28;20009;-67
2023/05/04 08:39:22;;;;;;;;;;;;;;;12.72;48.97;102053.31;4114185;28;20024;-67
2023/05/04 08:41:24;;;;;;;;;;;;;;;12.76;49.83;102057.41;4114931;28;20049;-67
2023/05/04 08:43:28;;;;;;;;;;;;;;;12.78;48.67;102055.38;4114913;28;20026;-66
2023/05/04 08:45:30;;;;;;;;;;;;;;;12.79;49.09;102059.81;4113626;28;20001;-66
2023/05/04 08:47:32;;;;;;;;;;;;;;;12.82;49.35;102058.63;4114093;28;20577;-66
2023/05/04 08:49:34;;;;;;;;;;;;;;;12.84;49.08;102062.03;4113980;28;20028;-67
2023/05/04 08:51:36;;;;;;;;;;;;;;;12.84;49.43;102060.16;4114656;28;20021;-67
2023/05/04 08:53:41;;;;;;;;;;;;;;;12.84;49.79;102060.16;4113618;28;19930;-67
2023/05/04 08:55:43;;;;;;;;;;;;;;;12.88;49.72;102057.97;4114809;28;20032;-67
2023/05/04 08:57:45;;;;;;;;;;;;;;;12.88;49.32;102050.69;4114930;28;20021;-66
2023/05/04 08:59:50;;;;;;;;;;;;;;;12.90;49.48;102045.97;4114388;28;20061;-64
2023/05/04 09:01:53;;;;;;;;;;;;;;;12.91;49.60;102044.94;4113639;28;20441;-67
2023/05/04 09:03:55;;;;;;;;;;;;;;;12.94;48.98;102049.22;4114604;28;20033;-66
2023/05/04 09:05:57;;;;;;;;;;;;;;;12.98;48.59;102039.75;4115269;28;20502;-67
2023/05/04 09:07:59;;;;;;;;;;;;;;;13.00;49.14;102043.13;4115062;28;20371;-67
2023/05/04 09:10:02;;;;;;;;;;;;;;;13.03;48.67;102040.09;4114973;28;20028;-67
2023/05/04 09:12:04;;;;;;;;;;;;;;;13.06;47.69;102047.09;4114573;28;20028;-67
2023/05/04 09:14:06;;;;;;;;;;;;;;;13.09;46.26;102038.63;4115294;28;19949;-67
2023/05/04 09:16:09;;;;;;;;;;;;;;;13.11;47.45;102044.72;4114244;28;20013;-67
2023/05/04 09:18:11;;;;;;;;;;;;;;;13.12;48.06;102038.31;4114776;28;20023;-67
2023/05/04 09:20:13;;;;;;;;;;;;;;;13.10;48.53;102035.75;4115422;28;20014;-66
2023/05/04 09:22:16;;;;;;;;;;;;;;;13.14;48.52;102047.13;4114781;28;20022;-67
2023/05/04 09:24:27;;;;;;;;;;;;;;;13.15;48.59;102046.94;4113729;28;19926;-67
2023/05/04 09:26:29;;;;;;;;;;;;;;;13.17;47.34;102046.78;4121323;28;20222;-66
2023/05/04 09:28:35;;;;;;;;;;;;;;;13.21;47.56;102044.59;4115440;28;20012;-67
2023/05/04 09:30:39;;;;;;;;;;;;;;;13.25;47.22;102043.25;4114130;28;20014;-67
2023/05/04 09:32:46;;;;;;;;;;;;;;;13.29;47.28;102040.06;4113569;28;20026;-66
2023/05/04 09:34:49;;;;;;;;;;;;;;;13.29;48.11;102039.19;4114302;28;19968;-66
2023/05/04 09:36:57;;;;;;;;;;;;;;;13.27;48.27;102033.94;4112967;28;20021;-66
2023/05/04 09:39:09;;;;;;;;;;;;;;;13.24;48.22;102028.81;4112424;28;20017;-66
2023/05/04 09:41:11;;;;;;;;;;;;;;;13.24;48.67;102022.56;4114124;28;20032;-66
2023/05/04 09:43:14;;;;;;;;;;;;;;;13.24;48.43;102022.56;4113449;28;20033;-67
2023/05/04 09:45:16;;;;;;;;;;;;;;;13.33;48.04;102027.03;4113804;28;19930;-65
2023/05/04 09:47:18;;;;;;;;;;;;;;;13.39;47.87;102020.13;4113971;28;20017;-65
2023/05/04 09:49:31;;;;;;;;;;;;;;;13.43;47.53;102027.78;4113294;28;20017;-65
2023/05/04 09:51:33;;;;;;;;;;;;;;;13.41;47.84;102018.94;4112987;28;20433;-66
2023/05/04 09:53:35;;;;;;;;;;;;;;;13.41;47.96;102020.81;4112381;28;20009;-67
2023/05/04 09:55:37;;;;;;;;;;;;;;;13.40;47.89;102014.53;4114284;28;19994;-66
2023/05/04 09:57:40;;;;;;;;;;;;;;;13.43;48.22;102010.63;4112484;28;20373;-67
2023/05/04 09:59:43;;;;;;;;;;;;;;;13.47;48.02;102010.13;4113950;28;20021;-65
2023/05/04 10:01:45;;;;;;;;;;;;;;;13.49;47.81;102012.69;4112234;28;20022;-66
2023/05/04 10:03:47;;;;;;;;;;;;;;;13.51;47.88;102003.38;4114214;28;20045;-66
2023/05/04 10:05:50;;;;;;;;;;;;;;;13.54;47.72;102009.47;4104531;28;20025;-66
2023/05/04 10:07:52;;;;;;;;;;;;;;;13.60;46.87;102006.09;4109869;28;20048;-66
2023/05/04 10:09:54;;;;;;;;;;;;;;;13.63;47.09;102001.16;4112189;28;20033;-66
2023/05/04 10:11:56;;;;;;;;;;;;;;;13.67;47.34;101999.00;4109407;28;20057;-66
2023/05/04 10:13:59;;;;;;;;;;;;;;;13.68;47.61;101998.81;4110815;28;20020;-66
2023/05/04 10:16:06;;;;;;;;;;;;;;;13.74;46.13;101991.03;4111033;28;20400;-66
2023/05/04 10:18:11;;;;;;;;;;;;;;;13.78;46.92;101995.13;4112646;28;20020;-65
2023/05/04 10:20:17;;;;;;;;;;;;;;;13.81;47.09;101981.19;4114035;28;20357;-66
2023/05/04 10:22:27;;;;;;;;;;;;;;;13.79;46.75;101985.94;4114348;28;20017;-66
2023/05/04 10:24:37;;;;;;;;;;;;;;;13.75;47.22;101976.44;4113908;28;20033;-66
2023/05/04 10:26:47;;;;;;;;;;;;;;;13.78;47.03;101989.69;4112349;28;20025;-66
2023/05/04 10:28:52;;;;;;;;;;;;;;;13.78;47.33;101981.53;4113746;28;20012;-66
2023/05/04 10:30:55;;;;;;;;;;;;;;;13.79;47.37;101967.78;4120058;28;20630;-66
2023/05/04 10:32:58;;;;;;;;;;;;;;;13.79;47.28;101973.22;4114671;28;20022;-65